Time;durP1;ratioP1;P1;durP2;ratioP2;P2;SDS_P1;SDS_P2;PMS_P1;PMS_P2;Temp;Humidity;BMP_temperature;BMP_pressure;BME280_temperature;BME280_humidity;BME280_pressure;Samples;Min_cycle;Max_cycle;Signal;HPM_P1;HPM_P2
2022/07/28 00:01:34;;;;;;;3.75;2.60;;;17.10;99.90;;;;;;5015445;28;20177;-95
2022/07/28 00:04:00;;;;;;;5.57;3.33;;;17.10;99.90;;;;;;5015464;28;20180;-95
2022/07/28 00:06:25;;;;;;;4.75;2.92;;;17.10;99.90;;;;;;4982083;28;20181;-92
2022/07/28 00:08:51;;;;;;;2.80;2.10;;;17.10;99.90;;;;;;5014085;28;20177;-96
2022/07/28 00:11:17;;;;;;;2.63;2.00;;;17.10;99.90;;;;;;5015274;28;20207;-96
2022/07/28 00:13:42;;;;;;;5.45;3.17;;;17.10;99.90;;;;;;4997604;28;20192;-90
2022/07/28 00:16:08;;;;;;;3.75;2.47;;;17.00;99.90;;;;;;5015276;28;20181;-96
2022/07/28 00:18:34;;;;;;;5.10;2.75;;;17.10;99.90;;;;;;5015118;28;20228;-95
2022/07/28 00:21:01;;;;;;;4.82;3.08;;;17.10;99.90;;;;;;4997545;28;20190;-95
2022/07/28 00:23:26;;;;;;;4.55;2.78;;;17.10;99.90;;;;;;4998031;28;20204;-96
2022/07/28 00:25:52;;;;;;;2.83;2.15;;;17.10;99.90;;;;;;5013816;28;20185;-95
2022/07/28 00:28:17;;;;;;;3.97;2.80;;;17.10;99.90;;;;;;5014704;28;20185;-94
2022/07/28 00:30:43;;;;;;;4.05;3.10;;;17.10;99.90;;;;;;5015066;28;20194;-94
2022/07/28 00:33:09;;;;;;;3.55;2.58;;;17.10;99.90;;;;;;5015125;28;20237;-95
2022/07/28 00:35:35;;;;;;;3.47;2.63;;;17.10;99.90;;;;;;5014807;28;20181;-94
2022/07/28 00:38:00;;;;;;;4.25;2.83;;;17.00;99.90;;;;;;4997560;28;20292;-94
2022/07/28 00:41:09;;;;;;;3.08;2.38;;;17.00;99.90;;;;;;5015296;28;20177;-96
2022/07/28 00:43:12;;;;;;;3.75;2.50;;;17.00;99.90;;;;;;5000185;28;20197;-95
2022/07/28 00:45:37;;;;;;;3.83;2.63;;;17.00;99.90;;;;;;5013680;28;20189;-95
2022/07/28 00:48:03;;;;;;;2.33;2.08;;;17.00;99.90;;;;;;5014434;28;20532;-91
2022/07/28 00:50:29;;;;;;;3.33;2.67;;;17.00;99.90;;;;;;4998632;28;20272;-94
2022/07/28 00:52:55;;;;;;;5.30;2.55;;;17.00;99.90;;;;;;5000913;28;20189;-94
2022/07/28 00:55:22;;;;;;;4.30;2.85;;;16.90;99.90;;;;;;5018301;28;20177;-93
2022/07/28 00:57:47;;;;;;;4.72;3.13;;;16.90;99.90;;;;;;5000820;28;20216;-90
2022/07/28 01:00:13;;;;;;;3.00;2.33;;;16.90;99.90;;;;;;5001138;28;20208;-94
2022/07/28 01:02:39;;;;;;;2.70;2.35;;;16.90;99.90;;;;;;5018503;28;20201;-94
2022/07/28 01:05:05;;;;;;;3.22;2.67;;;16.90;99.90;;;;;;5018242;28;20177;-95
2022/07/28 01:07:49;;;;;;;7.80;2.90;;;16.90;99.90;;;;;;5016871;28;20169;-93
2022/07/28 01:10:25;;;;;;;3.70;2.83;;;16.90;99.90;;;;;;5041505;28;20169;-92
2022/07/28 01:13:10;;;;;;;3.65;2.78;;;16.80;99.90;;;;;;5028773;28;20269;-94
2022/07/28 01:15:41;;;;;;;3.20;2.63;;;16.80;99.90;;;;;;5026070;28;20169;-93
2022/07/28 01:18:28;;;;;;;4.47;2.83;;;16.80;99.90;;;;;;5039507;28;20205;-91
2022/07/28 01:21:02;;;;;;;4.18;2.45;;;16.80;99.90;;;;;;5025883;28;20272;-93
2022/07/28 01:23:31;;;;;;;4.18;3.05;;;16.80;99.90;;;;;;5016275;28;20161;-94
2022/07/28 01:26:32;;;;;;;4.75;3.28;;;16.80;99.90;;;;;;5018623;28;20177;-93
2022/07/28 01:29:08;;;;;;;3.70;3.28;;;16.80;99.90;;;;;;5017808;28;20212;-94
2022/07/28 01:31:41;;;;;;;3.15;2.85;;;16.80;99.90;;;;;;5019237;28;20506;-94
2022/07/28 01:34:17;;;;;;;5.72;3.33;;;16.80;99.90;;;;;;5039299;28;20286;-93
2022/07/28 01:36:48;;;;;;;5.63;3.50;;;16.80;99.90;;;;;;5020224;28;20630;-94
2022/07/28 01:39:16;;;;;;;4.90;3.22;;;16.80;99.90;;;;;;5016694;28;20192;-94
2022/07/28 01:41:44;;;;;;;6.93;3.45;;;16.80;99.90;;;;;;5017206;28;20187;-94
2022/07/28 01:44:14;;;;;;;4.43;2.75;;;16.80;99.90;;;;;;5016774;28;20188;-94
2022/07/28 01:46:42;;;;;;;4.53;3.05;;;16.90;99.90;;;;;;5016941;28;20252;-96
2022/07/28 01:49:09;;;;;;;4.38;3.20;;;16.90;99.90;;;;;;4999261;28;20189;-95
2022/07/28 01:51:36;;;;;;;5.43;3.55;;;16.80;99.90;;;;;;5016785;28;20196;-95
2022/07/28 01:54:03;;;;;;;5.97;3.60;;;16.90;99.90;;;;;;5016512;28;20177;-93
2022/07/28 01:56:31;;;;;;;7.35;3.15;;;16.90;99.90;;;;;;5016637;28;20205;-93
2022/07/28 01:59:01;;;;;;;6.50;3.50;;;17.00;99.90;;;;;;5015724;28;20225;-91
2022/07/28 02:01:30;;;;;;;4.82;2.97;;;17.00;99.90;;;;;;5016069;28;20688;-93
2022/07/28 02:03:57;;;;;;;3.15;2.70;;;17.00;99.90;;;;;;4998761;28;20268;-91
2022/07/28 02:06:25;;;;;;;5.40;3.25;;;17.00;99.90;;;;;;5015850;28;20170;-93
2022/07/28 02:08:53;;;;;;;4.68;2.80;;;17.00;99.90;;;;;;5016261;28;20264;-94
2022/07/28 02:14:07;;;;;;;4.50;2.90;;;17.00;99.90;;;;;;5016008;28;20540;-93
2022/07/28 02:16:32;;;;;;;5.32;3.08;;;17.00;99.90;;;;;;5015123;28;20181;-94
2022/07/28 02:19:00;;;;;;;6.57;3.53;;;17.00;99.90;;;;;;4998580;28;20201;-94
2022/07/28 02:21:28;;;;;;;6.15;3.10;;;17.00;99.90;;;;;;4998607;28;20200;-94
2022/07/28 02:23:56;;;;;;;4.32;3.15;;;17.00;99.90;;;;;;5016309;28;20178;-94
2022/07/28 02:26:29;;;;;;;7.68;3.50;;;17.00;99.90;;;;;;4998562;28;20185;-94
2022/07/28 02:28:59;;;;;;;3.65;2.65;;;17.00;99.90;;;;;;5016112;28;20166;-93
2022/07/28 02:31:49;;;;;;;5.38;3.95;;;17.10;99.90;;;;;;5014462;28;20200;-94
2022/07/28 02:34:15;;;;;;;3.65;3.05;;;17.10;99.90;;;;;;5015007;28;20229;-92
2022/07/28 02:36:49;;;;;;;4.93;2.88;;;17.10;99.90;;;;;;5015600;28;20185;-92
2022/07/28 02:39:20;;;;;;;4.13;2.70;;;17.10;99.90;;;;;;5015041;28;20207;-92
2022/07/28 02:41:52;;;;;;;3.20;2.88;;;17.10;99.90;;;;;;5015438;28;20157;-93
2022/07/28 02:44:21;;;;;;;4.25;3.13;;;17.10;99.90;;;;;;5015209;28;20615;-93
2022/07/28 02:46:51;;;;;;;5.25;3.00;;;17.10;99.90;;;;;;5015394;28;20181;-93
2022/07/28 02:49:30;;;;;;;5.63;3.20;;;17.10;99.90;;;;;;5014922;28;20657;-94
2022/07/28 02:51:58;;;;;;;3.97;3.03;;;17.00;99.90;;;;;;4997992;28;20637;-93
2022/07/28 02:54:26;;;;;;;3.47;2.67;;;17.00;99.90;;;;;;5014941;28;20177;-92
2022/07/28 02:56:52;;;;;;;6.75;3.72;;;16.90;99.90;;;;;;5015224;28;20169;-92
2022/07/28 02:59:19;;;;;;;5.28;3.47;;;16.90;99.90;;;;;;4997653;28;20221;-92
2022/07/28 03:01:47;;;;;;;3.40;2.88;;;16.90;99.90;;;;;;5015046;28;20177;-92
2022/07/28 03:04:14;;;;;;;3.58;2.70;;;16.80;99.90;;;;;;4997669;28;20239;-91
2022/07/28 03:06:40;;;;;;;4.00;3.15;;;16.90;99.90;;;;;;5015286;28;20184;-94
2022/07/28 03:09:10;;;;;;;4.93;2.88;;;16.80;99.90;;;;;;5015717;28;20237;-91
2022/07/28 03:11:35;;;;;;;4.07;3.17;;;16.80;99.90;;;;;;5014957;28;20219;-91
2022/07/28 03:14:01;;;;;;;5.30;2.90;;;16.80;99.90;;;;;;5016699;28;20659;-91
2022/07/28 03:16:26;;;;;;;3.30;2.67;;;16.80;99.90;;;;;;5017192;28;20196;-91
2022/07/28 03:18:52;;;;;;;3.75;2.78;;;16.90;99.90;;;;;;5017346;28;20212;-92
2022/07/28 03:21:18;;;;;;;3.83;2.65;;;16.90;99.90;;;;;;5001146;28;20219;-92
2022/07/28 03:23:47;;;;;;;4.30;2.85;;;17.00;99.90;;;;;;5018722;28;20176;-92
2022/07/28 03:26:39;;;;;;;2.78;2.42;;;17.00;99.90;;;;;;5035515;28;20176;-92
2022/07/28 03:29:06;;;;;;;2.95;2.58;;;17.00;99.90;;;;;;5033631;28;20176;-93
2022/07/28 03:31:34;;;;;;;4.43;3.25;;;17.00;99.90;;;;;;5033654;28;20176;-93
2022/07/28 03:34:00;;;;;;;6.90;4.60;;;17.00;99.90;;;;;;5034612;28;20232;-93
2022/07/28 03:36:32;;;;;;;6.13;2.60;;;16.90;99.90;;;;;;5016783;28;20246;-93
2022/07/28 03:39:03;;;;;;;4.03;2.28;;;16.90;99.90;;;;;;5034769;28;20193;-93
2022/07/28 03:41:31;;;;;;;5.03;2.63;;;16.90;99.90;;;;;;5017088;28;20176;-94
2022/07/28 03:43:58;;;;;;;3.83;2.40;;;16.80;99.90;;;;;;5034532;28;20177;-92
2022/07/28 03:46:25;;;;;;;5.28;2.90;;;16.80;99.90;;;;;;5016642;28;20175;-94
2022/07/28 03:48:51;;;;;;;3.00;2.72;;;16.90;99.90;;;;;;5001053;28;20542;-94
2022/07/28 03:51:17;;;;;;;3.17;2.10;;;16.90;99.90;;;;;;5017018;28;20184;-93
2022/07/28 03:53:43;;;;;;;3.53;2.65;;;16.90;99.90;;;;;;5016960;28;20630;-94
2022/07/28 03:56:09;;;;;;;2.92;2.13;;;16.90;99.90;;;;;;5016741;28;20520;-94
2022/07/28 03:58:35;;;;;;;4.18;2.58;;;16.90;99.90;;;;;;5016987;28;20279;-93
2022/07/28 04:01:00;;;;;;;2.92;2.50;;;16.90;99.90;;;;;;5034291;28;20176;-95
2022/07/28 04:03:26;;;;;;;2.95;2.33;;;16.80;99.90;;;;;;5017427;28;20199;-94
2022/07/28 04:05:54;;;;;;;2.95;2.15;;;16.80;99.90;;;;;;5017496;28;20181;-93
2022/07/28 04:08:20;;;;;;;3.22;2.50;;;16.80;99.90;;;;;;5017512;28;20180;-95
2022/07/28 04:10:45;;;;;;;2.45;2.25;;;16.90;99.90;;;;;;5036965;28;20242;-94
2022/07/28 04:13:11;;;;;;;2.88;1.85;;;16.90;99.90;;;;;;5019122;28;20189;-95
2022/07/28 04:15:37;;;;;;;7.03;2.17;;;16.90;99.90;;;;;;5019404;28;20208;-95
2022/07/28 04:18:03;;;;;;;4.32;2.40;;;16.90;99.90;;;;;;5036583;28;20207;-94
2022/07/28 04:20:29;;;;;;;1.95;1.77;;;16.90;99.90;;;;;;5036728;28;20646;-92
2022/07/28 04:22:55;;;;;;;6.07;1.92;;;16.90;99.90;;;;;;5002759;28;20173;-93
2022/07/28 04:25:23;;;;;;;3.63;1.95;;;16.80;99.90;;;;;;5036380;28;20668;-91
2022/07/28 04:27:49;;;;;;;1.98;1.60;;;17.00;99.90;;;;;;5040727;28;20276;-92
2022/07/28 04:30:17;;;;;;;4.45;2.03;;;17.00;99.90;;;;;;5039930;28;20188;-93
2022/07/28 04:32:44;;;;;;;3.28;1.60;;;17.00;99.90;;;;;;5022481;28;20232;-93
2022/07/28 04:35:11;;;;;;;2.42;1.55;;;17.00;99.90;;;;;;5023122;28;20260;-94
2022/07/28 04:37:37;;;;;;;1.98;1.70;;;17.10;99.90;;;;;;5023085;28;20196;-94
2022/07/28 04:40:05;;;;;;;2.90;1.73;;;17.10;99.90;;;;;;5040979;28;20270;-93
2022/07/28 04:42:31;;;;;;;2.67;1.67;;;17.10;99.90;;;;;;5022823;28;20187;-94
2022/07/28 04:44:57;;;;;;;2.50;1.70;;;17.20;99.90;;;;;;5023821;28;20200;-92
2022/07/28 04:47:23;;;;;;;2.88;1.65;;;17.20;99.90;;;;;;5044099;28;20293;-94
2022/07/28 04:49:49;;;;;;;2.47;1.75;;;17.30;99.90;;;;;;5034777;28;20208;-91
2022/07/28 04:52:15;;;;;;;1.80;1.52;;;17.40;99.90;;;;;;5036554;28;20181;-91
2022/07/28 04:54:41;;;;;;;2.15;1.65;;;17.40;99.90;;;;;;5034559;28;20236;-93
2022/07/28 04:57:07;;;;;;;1.75;1.65;;;17.40;99.90;;;;;;5054796;28;20181;-93
2022/07/28 04:59:34;;;;;;;2.10;1.90;;;17.50;99.90;;;;;;5054616;28;20578;-93
2022/07/28 05:02:00;;;;;;;1.95;1.73;;;17.50;99.90;;;;;;5020562;28;20188;-93
2022/07/28 05:04:26;;;;;;;1.58;1.42;;;17.50;99.90;;;;;;5054131;28;20189;-93
2022/07/28 05:06:51;;;;;;;6.07;1.52;;;17.50;99.90;;;;;;5037006;28;20222;-92
2022/07/28 05:09:17;;;;;;;3.10;1.80;;;17.50;99.90;;;;;;5056069;28;20196;-89
2022/07/28 05:11:42;;;;;;;2.53;1.95;;;17.60;99.90;;;;;;5040186;28;20180;-94
2022/07/28 05:14:08;;;;;;;1.77;1.67;;;17.50;99.90;;;;;;5029829;28;20512;-92
2022/07/28 05:16:34;;;;;;;3.30;2.20;;;17.50;99.90;;;;;;5039952;28;20165;-91
2022/07/28 05:19:00;;;;;;;3.25;2.13;;;17.50;99.90;;;;;;5030512;28;20224;-89
2022/07/28 05:21:26;;;;;;;2.33;1.88;;;17.60;99.90;;;;;;5034670;28;20189;-91
2022/07/28 05:23:51;;;;;;;3.95;2.20;;;17.60;99.90;;;;;;5024583;28;20650;-91
2022/07/28 05:26:17;;;;;;;3.30;1.88;;;17.60;99.90;;;;;;5038881;28;20193;-89
2022/07/28 05:28:43;;;;;;;2.25;2.05;;;17.60;99.90;;;;;;5025553;28;20185;-88
2022/07/28 05:31:08;;;;;;;1.60;1.50;;;17.60;99.90;;;;;;5042872;28;20181;-90
2022/07/28 05:33:34;;;;;;;5.88;1.73;;;17.60;99.90;;;;;;5031567;28;20236;-88
2022/07/28 05:36:00;;;;;;;2.95;1.90;;;17.70;99.90;;;;;;5030202;28;20187;-91
2022/07/28 05:38:26;;;;;;;2.08;1.58;;;17.60;99.90;;;;;;5011542;28;20208;-91
2022/07/28 05:40:52;;;;;;;1.40;1.30;;;17.50;99.90;;;;;;5025233;28;20578;-90
2022/07/28 05:43:19;;;;;;;3.55;1.55;;;17.50;99.90;;;;;;5003352;28;20179;-91
2022/07/28 05:45:45;;;;;;;2.58;1.80;;;17.50;99.90;;;;;;5022761;28;20173;-90
2022/07/28 05:48:11;;;;;;;2.20;1.70;;;17.60;99.90;;;;;;5023450;28;20216;-90
2022/07/28 05:50:36;;;;;;;3.85;2.08;;;17.60;99.90;;;;;;4990746;28;20655;-90
2022/07/28 05:53:02;;;;;;;3.35;2.42;;;17.70;99.90;;;;;;5024490;28;20192;-90
2022/07/28 05:55:28;;;;;;;3.00;1.80;;;17.70;99.90;;;;;;5005630;28;20630;-90
2022/07/28 05:57:54;;;;;;;2.38;1.80;;;17.70;99.90;;;;;;5006152;28;20586;-92
2022/07/28 06:00:21;;;;;;;2.83;1.70;;;17.60;99.90;;;;;;5005989;28;20177;-91
2022/07/28 06:02:49;;;;;;;2.45;1.73;;;17.60;99.90;;;;;;5025390;28;20221;-91
2022/07/28 06:05:16;;;;;;;2.55;2.00;;;17.60;99.90;;;;;;5006201;28;20211;-91
2022/07/28 06:07:43;;;;;;;2.10;1.50;;;17.60;99.90;;;;;;5024490;28;20246;-91
2022/07/28 06:10:09;;;;;;;1.80;1.58;;;17.70;99.90;;;;;;5024655;28;20272;-90
2022/07/28 06:12:42;;;;;;;2.60;1.92;;;17.70;99.90;;;;;;5026410;28;20180;-92
2022/07/28 06:15:13;;;;;;;2.17;1.70;;;17.80;99.90;;;;;;5033678;28;20540;-92
2022/07/28 06:17:40;;;;;;;3.53;2.17;;;17.90;99.90;;;;;;5027605;28;20284;-91
2022/07/28 06:20:07;;;;;;;2.03;1.80;;;17.90;99.90;;;;;;5023284;28;20704;-92
2022/07/28 06:22:46;;;;;;;2.58;1.73;;;17.90;99.90;;;;;;5004826;28;20182;-92
2022/07/28 06:25:16;;;;;;;1.60;1.50;;;18.00;99.90;;;;;;5021994;28;20309;-92
2022/07/28 06:27:46;;;;;;;1.90;1.67;;;18.00;99.90;;;;;;4986723;28;20197;-92
2022/07/28 06:30:12;;;;;;;4.20;1.73;;;18.00;99.90;;;;;;5007176;28;20239;-90
2022/07/28 06:32:37;;;;;;;3.03;1.70;;;18.00;99.90;;;;;;5028409;28;20696;-90
2022/07/28 06:35:04;;;;;;;2.72;1.58;;;18.10;99.90;;;;;;4991684;28;20185;-92
2022/07/28 06:37:29;;;;;;;2.20;1.63;;;18.10;99.90;;;;;;5000106;28;20646;-90
2022/07/28 06:39:55;;;;;;;2.08;1.80;;;18.10;99.90;;;;;;5001883;28;20271;-89
2022/07/28 06:42:21;;;;;;;2.45;1.67;;;17.60;99.90;;;;;;5034482;28;20272;-90
2022/07/28 06:44:47;;;;;;;4.32;1.70;;;18.10;99.90;;;;;;5033799;28;20204;-89
2022/07/28 06:47:12;;;;;;;1.90;1.70;;;18.00;99.90;;;;;;5037602;28;20184;-89
2022/07/28 06:49:38;;;;;;;2.75;1.70;;;18.10;99.90;;;;;;5019185;28;20180;-88
2022/07/28 06:52:04;;;;;;;1.75;1.50;;;18.20;99.90;;;;;;5000376;28;20188;-90
2022/07/28 06:54:29;;;;;;;4.03;2.00;;;18.20;99.90;;;;;;5019868;28;20306;-90
2022/07/28 06:56:55;;;;;;;2.08;1.67;;;18.20;99.90;;;;;;5003759;28;20177;-92
2022/07/28 06:59:20;;;;;;;2.15;1.55;;;18.20;99.90;;;;;;5003578;28;20207;-91
2022/07/28 07:01:46;;;;;;;6.85;2.08;;;18.20;99.90;;;;;;4987038;28;20188;-92
2022/07/28 07:04:11;;;;;;;2.58;1.92;;;18.20;99.90;;;;;;5034493;28;20173;-92
2022/07/28 07:06:37;;;;;;;1.45;1.35;;;18.30;99.90;;;;;;5006607;28;20219;-90
2022/07/28 07:09:03;;;;;;;2.80;1.33;;;18.40;99.90;;;;;;5023107;28;20172;-92
2022/07/28 07:11:29;;;;;;;4.00;1.67;;;18.40;99.90;;;;;;5000939;28;20189;-91
2022/07/28 07:13:55;;;;;;;2.47;1.70;;;18.40;99.90;;;;;;5001716;28;20186;-90
2022/07/28 07:16:20;;;;;;;4.00;2.38;;;18.50;99.90;;;;;;4984371;28;20247;-90
2022/07/28 07:18:49;;;;;;;2.17;1.55;;;18.50;99.90;;;;;;4997820;28;20217;-91
2022/07/28 07:21:15;;;;;;;2.72;1.35;;;18.50;99.90;;;;;;4999594;28;20190;-92
2022/07/28 07:23:41;;;;;;;3.58;1.48;;;18.50;99.90;;;;;;4981429;28;20174;-91
2022/07/28 07:26:06;;;;;;;3.30;1.75;;;18.60;99.90;;;;;;4999855;28;20184;-91
2022/07/28 07:28:33;;;;;;;1.60;1.50;;;18.60;99.90;;;;;;4965641;28;20239;-93
2022/07/28 07:30:58;;;;;;;7.65;2.47;;;18.60;99.90;;;;;;5023750;28;20638;-91
2022/07/28 07:33:24;;;;;;;1.75;1.23;;;18.60;99.90;;;;;;5035989;28;20307;-92
2022/07/28 07:35:50;;;;;;;1.70;1.35;;;18.60;99.90;;;;;;5020503;28;20635;-92
2022/07/28 07:38:16;;;;;;;1.75;1.30;;;18.70;99.90;;;;;;5025713;28;20211;-92
2022/07/28 07:40:42;;;;;;;2.05;1.40;;;18.70;99.90;;;;;;5019497;28;20542;-92
2022/07/28 07:43:08;;;;;;;4.25;1.58;;;;;;;;;;5037939;28;20183;-93
2022/07/28 07:45:34;;;;;;;3.33;1.38;;;;;;;;;;5021371;28;20176;-93
2022/07/28 07:48:01;;;;;;;1.55;1.45;;;18.80;99.90;;;;;;5019068;28;20184;-93
2022/07/28 07:50:28;;;;;;;2.72;1.42;;;18.80;99.90;;;;;;5020759;28;20176;-92
2022/07/28 07:52:53;;;;;;;2.50;1.70;;;18.90;99.90;;;;;;5018245;28;20218;-92
2022/07/28 07:55:19;;;;;;;3.08;1.20;;;;;;;;;;5037380;28;20220;-92
2022/07/28 07:57:45;;;;;;;2.90;1.50;;;;;;;;;;5023998;28;20191;-90
2022/07/28 08:00:12;;;;;;;2.92;1.45;;;19.00;99.90;;;;;;5025405;28;20219;-90
2022/07/28 08:02:41;;;;;;;3.75;1.38;;;19.00;99.90;;;;;;5051246;28;20191;-91
2022/07/28 08:05:08;;;;;;;1.67;1.40;;;19.10;99.90;;;;;;5017802;28;20184;-90
2022/07/28 08:07:34;;;;;;;1.30;1.17;;;19.20;99.90;;;;;;5049667;28;20211;-91
2022/07/28 08:09:59;;;;;;;1.67;1.20;;;19.30;99.90;;;;;;5050494;28;20184;-90
2022/07/28 08:12:25;;;;;;;1.77;1.10;;;19.30;99.90;;;;;;5028224;28;20228;-91
2022/07/28 08:14:52;;;;;;;1.15;1.02;;;19.40;99.90;;;;;;5053065;28;20199;-90
2022/07/28 08:17:17;;;;;;;1.83;1.00;;;19.40;99.90;;;;;;5032893;28;20192;-90
2022/07/28 08:19:43;;;;;;;2.70;1.15;;;19.50;99.90;;;;;;5023026;28;20212;-89
2022/07/28 08:22:09;;;;;;;0.85;0.85;;;19.60;99.90;;;;;;5047880;28;20188;-90
2022/07/28 08:24:34;;;;;;;1.65;1.25;;;19.70;99.90;;;;;;5000583;28;20189;-91
2022/07/28 08:27:03;;;;;;;1.83;0.85;;;19.90;99.90;;;;;;5000670;28;20642;-90
2022/07/28 08:29:29;;;;;;;1.90;1.50;;;19.90;99.90;;;;;;5033353;28;20274;-92
2022/07/28 08:31:54;;;;;;;3.20;1.05;;;20.00;99.90;;;;;;5033515;28;20364;-91
2022/07/28 08:34:20;;;;;;;2.22;0.98;;;20.20;99.90;;;;;;5033950;28;20648;-91
2022/07/28 08:36:45;;;;;;;1.30;0.90;;;20.30;99.90;;;;;;5027082;28;20181;-87
2022/07/28 08:39:11;;;;;;;0.80;0.60;;;20.40;99.90;;;;;;5024079;28;20232;-89
2022/07/28 08:41:53;;;;;;;1.20;0.93;;;20.50;99.90;;;;;;5039521;28;20637;-90
2022/07/28 08:44:27;;;;;;;2.25;1.05;;;20.40;99.90;;;;;;5018175;28;20188;-89
2022/07/28 08:46:53;;;;;;;0.82;0.60;;;20.50;99.90;;;;;;5017453;28;20184;-89
2022/07/28 08:49:19;;;;;;;0.57;0.50;;;20.60;99.90;;;;;;5038794;28;20196;-89
2022/07/28 08:51:47;;;;;;;0.75;0.75;;;20.80;99.90;;;;;;5017288;28;20185;-90
2022/07/28 08:54:19;;;;;;;0.45;0.45;;;20.90;99.90;;;;;;5017437;28;20268;-88
2022/07/28 08:56:46;;;;;;;0.70;0.70;;;21.10;99.90;;;;;;5043430;28;20157;-88
2022/07/28 08:59:13;;;;;;;1.65;0.70;;;21.30;99.90;;;;;;5053649;28;20243;-89
2022/07/28 09:01:39;;;;;;;1.73;0.80;;;21.40;99.90;;;;;;5052894;28;20176;-89
2022/07/28 09:04:07;;;;;;;2.95;1.25;;;21.40;99.90;;;;;;5042324;28;20211;-89
2022/07/28 09:06:34;;;;;;;0.75;0.70;;;21.60;99.90;;;;;;5033090;28;20215;-89
2022/07/28 09:08:59;;;;;;;1.15;0.70;;;21.80;99.90;;;;;;5032310;28;20188;-88
2022/07/28 09:11:27;;;;;;;1.70;0.93;;;21.80;99.60;;;;;;5001124;28;20181;-88
2022/07/28 09:13:52;;;;;;;0.50;0.50;;;21.90;99.90;;;;;;5034888;28;20193;-89
2022/07/28 09:16:18;;;;;;;2.83;0.60;;;22.20;99.80;;;;;;5000144;28;20212;-89
2022/07/28 09:18:44;;;;;;;0.80;0.80;;;22.20;99.90;;;;;;5015422;28;20209;-88
2022/07/28 09:21:14;;;;;;;0.75;0.57;;;22.30;97.80;;;;;;4999190;28;20212;-89
2022/07/28 09:23:47;;;;;;;0.88;0.65;;;22.10;97.40;;;;;;5005532;28;20267;-89
2022/07/28 09:26:13;;;;;;;1.10;0.70;;;22.10;94.20;;;;;;5010590;28;20284;-89
2022/07/28 09:28:57;;;;;;;1.20;0.90;;;22.20;93.80;;;;;;5016443;28;20213;-90
2022/07/28 09:31:26;;;;;;;1.52;0.77;;;22.30;96.50;;;;;;4999627;28;20239;-89
2022/07/28 09:33:56;;;;;;;1.45;0.50;;;22.60;94.40;;;;;;4998570;28;20330;-90
2022/07/28 09:36:22;;;;;;;0.93;0.43;;;22.70;93.80;;;;;;5017101;28;20178;-88
2022/07/28 09:38:48;;;;;;;0.80;0.80;;;22.70;94.30;;;;;;5016102;28;20236;-88
2022/07/28 09:41:17;;;;;;;0.50;0.50;;;22.50;89.90;;;;;;4998898;28;20185;-89
2022/07/28 09:43:44;;;;;;;1.33;0.85;;;22.40;92.40;;;;;;5015944;28;20515;-88
2022/07/28 09:46:10;;;;;;;0.40;0.40;;;22.20;92.00;;;;;;5015917;28;20181;-89
2022/07/28 09:49:02;;;;;;;0.43;0.40;;;22.20;92.10;;;;;;5016168;28;20177;-89
2022/07/28 09:51:30;;;;;;;1.67;1.38;;;22.30;91.80;;;;;;4995606;28;20287;-89
2022/07/28 09:54:12;;;;;;;2.75;0.77;;;22.30;91.80;;;;;;5015851;28;20209;-88
2022/07/28 09:56:42;;;;;;;0.68;0.50;;;22.60;93.30;;;;;;5016159;28;20622;-89
2022/07/28 09:59:09;;;;;;;2.70;0.85;;;22.80;91.50;;;;;;4998391;28;20267;-89
2022/07/28 10:01:58;;;;;;;0.75;0.75;;;22.90;91.10;;;;;;5022384;28;20169;-89
2022/07/28 10:04:32;;;;;;;1.35;0.68;;;23.20;92.50;;;;;;5021212;28;20634;-91
2022/07/28 10:07:22;;;;;;;2.03;0.77;;;23.60;91.30;;;;;;5015806;28;20231;-88
2022/07/28 10:10:02;;;;;;;0.85;0.85;;;23.50;90.00;;;;;;4998596;28;20181;-91
2022/07/28 10:12:32;;;;;;;3.22;1.00;;;23.50;89.20;;;;;;5016284;28;20208;-90
2022/07/28 10:16:09;;;;;;;4.65;0.70;;;23.50;90.00;;;;;;4998536;28;20180;-90
2022/07/28 10:17:56;;;;;;;1.33;0.70;;;23.40;90.20;;;;;;5015186;28;20631;-90
2022/07/28 10:20:23;;;;;;;0.90;0.60;;;23.60;90.50;;;;;;4982508;28;20280;-89
2022/07/28 10:22:54;;;;;;;0.95;0.82;;;23.50;88.30;;;;;;5015909;28;20264;-88
2022/07/28 10:25:21;;;;;;;1.45;0.77;;;23.40;90.80;;;;;;4998374;28;20168;-90
2022/07/28 10:27:48;;;;;;;1.08;0.70;;;23.70;90.40;;;;;;4982019;28;20181;-90
2022/07/28 10:30:14;;;;;;;2.17;1.25;;;23.80;91.80;;;;;;4998759;28;20204;-90
2022/07/28 10:32:44;;;;;;;1.38;0.70;;;24.20;90.20;;;;;;4983597;28;20233;-90
2022/07/28 10:35:12;;;;;;;1.23;0.75;;;24.50;90.50;;;;;;5018732;28;20643;-90
2022/07/28 10:38:00;;;;;;;2.03;1.10;;;24.70;85.10;;;;;;5017837;28;20173;-89
2022/07/28 10:40:39;;;;;;;1.13;0.82;;;24.60;85.20;;;;;;5015716;28;20193;-90
2022/07/28 10:43:05;;;;;;;0.60;0.60;;;24.30;82.00;;;;;;5015840;28;20161;-90
2022/07/28 10:45:31;;;;;;;3.17;0.75;;;24.30;84.90;;;;;;5014768;28;20272;-89
2022/07/28 10:47:58;;;;;;;4.10;1.10;;;24.40;85.00;;;;;;4996979;28;20184;-89
2022/07/28 10:50:24;;;;;;;0.70;0.70;;;24.40;83.00;;;;;;4997486;28;20647;-89
2022/07/28 10:52:51;;;;;;;0.82;0.80;;;24.40;86.90;;;;;;4997868;28;20226;-90
2022/07/28 10:55:32;;;;;;;0.80;0.77;;;24.50;86.70;;;;;;4997662;28;20177;-91
2022/07/28 10:58:27;;;;;;;0.85;0.70;;;24.60;82.90;;;;;;5020679;28;20249;-89
2022/07/28 11:00:53;;;;;;;0.80;0.80;;;24.50;80.40;;;;;;5034805;28;20165;-89
2022/07/28 11:03:42;;;;;;;0.90;0.65;;;21.90;75.40;;;;;;5034517;28;20175;-89
2022/07/28 11:06:33;;;;;;;1.35;0.63;;;24.50;80.30;;;;;;5018347;28;20184;-89
2022/07/28 11:09:21;;;;;;;0.80;0.80;;;24.60;82.90;;;;;;5005053;28;20279;-89
2022/07/28 11:12:06;;;;;;;2.45;1.00;;;24.60;79.20;;;;;;5036430;28;20246;-89
2022/07/28 11:14:34;;;;;;;1.50;0.90;;;24.70;77.00;;;;;;5014255;28;20196;-90
2022/07/28 11:17:00;;;;;;;1.75;0.75;;;;;;;;;;5014813;28;20230;-88
2022/07/28 11:19:51;;;;;;;0.77;0.60;;;24.70;77.70;;;;;;5015126;28;20692;-88
2022/07/28 11:22:17;;;;;;;1.10;0.77;;;24.40;78.40;;;;;;5002964;28;20193;-88
2022/07/28 11:27:42;;;;;;;1.38;0.82;;;24.40;80.40;;;;;;5015185;28;20212;-88
2022/07/28 11:30:31;;;;;;;1.42;1.08;;;24.50;77.40;;;;;;5030460;28;20185;-88
2022/07/28 11:33:01;;;;;;;1.83;1.42;;;24.40;78.00;;;;;;5013994;28;20661;-89
2022/07/28 11:35:28;;;;;;;0.90;0.88;;;24.30;79.70;;;;;;5029858;28;20177;-90
2022/07/28 11:38:00;;;;;;;1.10;1.00;;;24.20;77.20;;;;;;5016052;28;20535;-89
2022/07/28 11:40:30;;;;;;;1.50;1.20;;;24.20;77.30;;;;;;5014599;28;20200;-90
2022/07/28 11:43:25;;;;;;;1.45;1.35;;;24.20;78.60;;;;;;5015392;28;20169;-91
2022/07/28 11:46:13;;;;;;;1.38;1.23;;;24.30;78.00;;;;;;5030488;28;20181;-89
2022/07/28 11:48:46;;;;;;;2.72;1.48;;;24.20;81.40;;;;;;5014576;28;20189;-90
2022/07/28 11:51:12;;;;;;;3.72;2.22;;;24.40;80.70;;;;;;5018320;28;20162;-90
2022/07/28 11:53:39;;;;;;;4.25;2.03;;;24.50;79.60;;;;;;5014439;28;20184;-90
2022/07/28 11:56:10;;;;;;;2.08;1.45;;;24.80;78.80;;;;;;5015027;28;20257;-89
2022/07/28 11:58:36;;;;;;;5.32;2.70;;;24.80;80.20;;;;;;5016070;28;20196;-89
2022/07/28 12:01:17;;;;;;;2.88;2.45;;;24.70;78.80;;;;;;5016104;28;20185;-86
2022/07/28 12:03:45;;;;;;;1.80;1.67;;;24.80;78.40;;;;;;5034533;28;20201;-85
2022/07/28 12:06:12;;;;;;;2.45;2.00;;;25.00;78.50;;;;;;4996790;28;20219;-85
2022/07/28 12:08:53;;;;;;;2.28;1.55;;;24.80;77.20;;;;;;5034590;28;20184;-88
2022/07/28 12:11:20;;;;;;;2.30;1.50;;;24.60;77.60;;;;;;5033082;28;20535;-86
2022/07/28 12:13:46;;;;;;;2.55;1.38;;;24.60;77.40;;;;;;5033621;28;20200;-86
2022/07/28 12:16:13;;;;;;;3.83;1.50;;;24.70;75.40;;;;;;5016575;28;20184;-88
2022/07/28 12:18:38;;;;;;;1.98;1.50;;;24.60;74.70;;;;;;5050907;28;20198;-85
2022/07/28 12:21:04;;;;;;;3.40;1.70;;;24.60;76.80;;;;;;5037710;28;20161;-87
2022/07/28 12:23:32;;;;;;;1.45;1.30;;;24.70;75.30;;;;;;5006505;28;20176;-86
2022/07/28 12:26:00;;;;;;;1.83;1.20;;;24.70;74.50;;;;;;5045829;28;20188;-87
2022/07/28 12:28:28;;;;;;;1.77;1.45;;;24.80;75.30;;;;;;5034048;28;20176;-87
2022/07/28 12:30:54;;;;;;;1.40;1.10;;;24.90;75.20;;;;;;5041808;28;20188;-85
2022/07/28 12:33:24;;;;;;;2.58;1.70;;;25.10;75.10;;;;;;5035275;28;20228;-87
2022/07/28 12:35:54;;;;;;;2.53;1.63;;;25.00;76.90;;;;;;5034046;28;20179;-86
2022/07/28 12:38:22;;;;;;;2.35;1.10;;;25.00;72.30;;;;;;5032489;28;20248;-87
2022/07/28 12:40:47;;;;;;;1.88;1.30;;;25.00;74.50;;;;;;5016473;28;20185;-88
2022/07/28 12:43:24;;;;;;;1.30;1.20;;;25.00;73.80;;;;;;5017261;28;20646;-89
2022/07/28 12:45:50;;;;;;;1.50;1.30;;;25.20;76.20;;;;;;5035030;28;20156;-88
2022/07/28 12:48:19;;;;;;;1.63;1.35;;;25.10;73.90;;;;;;5050319;28;20201;-88
2022/07/28 12:50:46;;;;;;;0.93;0.82;;;25.20;73.80;;;;;;5059017;28;20183;-88
2022/07/28 12:53:12;;;;;;;0.80;0.80;;;25.10;71.90;;;;;;5044198;28;20177;-89
2022/07/28 12:55:42;;;;;;;1.88;1.10;;;25.00;71.90;;;;;;5038952;28;20222;-88
2022/07/28 12:58:25;;;;;;;3.80;1.08;;;25.10;73.80;;;;;;5037575;28;20177;-88
2022/07/28 13:00:52;;;;;;;1.35;0.93;;;25.00;73.00;;;;;;5037416;28;20599;-87
2022/07/28 13:03:23;;;;;;;1.08;0.98;;;24.70;72.20;;;;;;5019984;28;20185;-89